Time;durP1;ratioP1;P1;durP2;ratioP2;P2;SDS_P1;SDS_P2;PMS_P1;PMS_P2;Temp;Humidity;BMP_temperature;BMP_pressure;BME280_temperature;BME280_humidity;BME280_pressure;Samples;Min_cycle;Max_cycle;Signal;HPM_P1;HPM_P2
2021/05/26 00:02:01;;;;;;;3.45;0.77;;;15.00;58.80;;;;;;4984045;28;20039;-88
2021/05/26 00:04:27;;;;;;;0.15;0.10;;;15.00;58.90;;;;;;4975195;28;20031;-88
2021/05/26 00:06:54;;;;;;;4.88;1.23;;;15.00;59.00;;;;;;4961545;28;20392;-87
2021/05/26 00:09:20;;;;;;;1.77;0.63;;;15.00;59.20;;;;;;4978521;28;20030;-88
2021/05/26 00:11:46;;;;;;;0.73;0.20;;;14.90;59.20;;;;;;4977515;28;20385;-89
2021/05/26 00:14:12;;;;;;;0.65;0.30;;;14.90;59.20;;;;;;4977581;28;20034;-88
2021/05/26 00:16:38;;;;;;;1.33;0.55;;;14.90;59.20;;;;;;4973861;28;20049;-87
2021/05/26 00:19:07;;;;;;;7.63;0.35;;;15.00;59.20;;;;;;4957500;28;20396;-87
2021/05/26 00:21:33;;;;;;;6.82;0.75;;;15.00;59.30;;;;;;4973518;28;20031;-88
2021/05/26 00:23:59;;;;;;;2.25;0.75;;;15.00;59.40;;;;;;4988153;28;20038;-87
2021/05/26 00:26:25;;;;;;;4.03;0.65;;;14.90;59.50;;;;;;4973061;28;20476;-88
2021/05/26 00:28:52;;;;;;;1.55;0.32;;;14.90;59.60;;;;;;4975652;28;20030;-87
2021/05/26 00:31:21;;;;;;;0.65;0.35;;;14.90;59.60;;;;;;4993903;28;20035;-89
2021/05/26 00:33:48;;;;;;;3.25;0.77;;;15.00;59.80;;;;;;4986722;28;20038;-87
2021/05/26 00:36:14;;;;;;;2.03;0.40;;;15.00;59.80;;;;;;4977180;28;20046;-87
2021/05/26 00:38:40;;;;;;;0.30;0.20;;;14.90;59.90;;;;;;4978057;28;20381;-87
2021/05/26 00:41:07;;;;;;;11.45;0.70;;;14.90;60.00;;;;;;4977006;28;20026;-87
2021/05/26 00:43:33;;;;;;;15.52;0.22;;;14.80;60.10;;;;;;4973972;28;20035;-88
2021/05/26 00:45:59;;;;;;;6.93;0.75;;;14.90;60.20;;;;;;4975226;28;20111;-87
2021/05/26 00:48:25;;;;;;;0.60;0.40;;;14.80;60.30;;;;;;4973156;28;20058;-88
2021/05/26 00:50:51;;;;;;;1.85;0.47;;;14.90;60.40;;;;;;4973624;28;20035;-85
2021/05/26 00:53:17;;;;;;;1.33;0.47;;;14.80;60.40;;;;;;4972102;28;20054;-87
2021/05/26 00:55:44;;;;;;;1.20;0.50;;;14.80;60.50;;;;;;4972575;28;20030;-88
2021/05/26 00:58:11;;;;;;;1.60;0.38;;;14.80;60.50;;;;;;4956699;28;20047;-89
2021/05/26 01:00:40;;;;;;;2.88;0.32;;;14.80;60.60;;;;;;4978303;28;20042;-88
2021/05/26 01:03:07;;;;;;;1.35;0.70;;;14.80;60.70;;;;;;4978195;28;20035;-86
2021/05/26 01:05:33;;;;;;;5.28;0.82;;;14.80;60.80;;;;;;4959591;28;20038;-88
2021/05/26 01:07:59;;;;;;;1.30;0.38;;;14.80;60.80;;;;;;4959202;28;20034;-88
2021/05/26 01:10:26;;;;;;;7.32;0.73;;;14.80;60.90;;;;;;4972518;28;20034;-87
2021/05/26 01:12:53;;;;;;;1.42;0.30;;;14.80;60.90;;;;;;4977860;28;20054;-88
2021/05/26 01:15:19;;;;;;;4.30;0.15;;;14.80;60.90;;;;;;4977416;28;20043;-88
2021/05/26 01:17:45;;;;;;;4.78;0.52;;;14.80;61.10;;;;;;4973321;28;20047;-87
2021/05/26 01:20:42;;;;;;;1.58;0.80;;;14.70;61.10;;;;;;4972061;28;20038;-88
2021/05/26 01:23:08;;;;;;;0.85;0.20;;;14.80;61.20;;;;;;4971854;28;20071;-88
2021/05/26 01:25:34;;;;;;;1.45;0.50;;;14.80;61.40;;;;;;4972124;28;20031;-87
2021/05/26 01:28:00;;;;;;;0.75;0.30;;;14.70;61.30;;;;;;4972319;28;20383;-87
2021/05/26 01:30:26;;;;;;;10.45;0.13;;;14.70;61.60;;;;;;4987219;28;20060;-88
2021/05/26 01:32:53;;;;;;;1.20;0.38;;;14.70;61.70;;;;;;4987918;28;20034;-88
2021/05/26 01:35:19;;;;;;;0.77;0.30;;;14.70;62.00;;;;;;4988061;28;20026;-85
2021/05/26 01:37:45;;;;;;;0.25;0.10;;;14.60;62.10;;;;;;4971731;28;20500;-88
2021/05/26 01:40:13;;;;;;;7.68;0.82;;;14.60;62.20;;;;;;4956031;28;20050;-87
2021/05/26 01:42:39;;;;;;;0.22;0.10;;;14.60;62.20;;;;;;4988506;28;20058;-88
2021/05/26 01:45:07;;;;;;;1.50;0.55;;;14.60;62.30;;;;;;4987456;28;20051;-87
2021/05/26 01:47:33;;;;;;;2.25;0.38;;;14.60;62.50;;;;;;5003626;28;20042;-88
2021/05/26 01:49:59;;;;;;;8.48;1.00;;;14.50;62.50;;;;;;4971759;28;20038;-88
2021/05/26 01:52:26;;;;;;;1.45;0.43;;;14.60;62.60;;;;;;4972680;28;20039;-86
2021/05/26 01:54:52;;;;;;;6.45;0.30;;;14.50;62.60;;;;;;4972463;28;20019;-87
2021/05/26 01:57:18;;;;;;;1.20;0.30;;;14.50;62.70;;;;;;4971772;28;20030;-88
2021/05/26 01:59:44;;;;;;;1.02;0.50;;;14.50;62.70;;;;;;4971832;28;20480;-87
2021/05/26 02:02:10;;;;;;;3.13;0.30;;;14.50;62.80;;;;;;4958146;28;20042;-88
2021/05/26 02:04:36;;;;;;;0.40;0.13;;;14.50;62.90;;;;;;4965471;28;20373;-88
2021/05/26 02:07:10;;;;;;;1.92;0.00;;;14.60;63.00;;;;;;4965624;28;20030;-87
2021/05/26 02:09:36;;;;;;;0.10;0.00;;;14.60;63.10;;;;;;5001156;28;20034;-88
2021/05/26 02:14:48;;;;;;;0.75;0.30;;;14.50;63.10;;;;;;4981392;28;20050;-87
2021/05/26 02:17:15;;;;;;;2.70;0.20;;;14.50;63.20;;;;;;4998566;28;20492;-87
2021/05/26 02:19:41;;;;;;;4.53;0.40;;;14.50;63.20;;;;;;4983300;28;20035;-89
2021/05/26 02:22:07;;;;;;;0.10;0.10;;;14.50;63.20;;;;;;4985530;28;20392;-86
2021/05/26 02:24:33;;;;;;;0.10;0.00;;;14.50;63.20;;;;;;4969672;28;20042;-88
2021/05/26 02:26:59;;;;;;;1.83;0.10;;;14.60;63.30;;;;;;4968245;28;20424;-88
2021/05/26 02:29:25;;;;;;;2.85;0.20;;;14.50;63.30;;;;;;4982713;28;20047;-87
2021/05/26 02:31:51;;;;;;;0.17;0.10;;;14.50;63.30;;;;;;4967838;28;20054;-87
2021/05/26 02:34:17;;;;;;;0.73;0.40;;;14.50;63.40;;;;;;4983503;28;20488;-87
2021/05/26 02:36:44;;;;;;;0.77;0.30;;;14.50;63.40;;;;;;4974369;28;20035;-88
2021/05/26 02:39:10;;;;;;;7.15;0.60;;;14.50;63.40;;;;;;4986132;28;20046;-88
2021/05/26 02:41:36;;;;;;;0.30;0.08;;;14.50;63.50;;;;;;4971457;28;20030;-88
2021/05/26 02:44:02;;;;;;;1.00;0.50;;;14.50;63.60;;;;;;4971297;28;20034;-88
2021/05/26 02:46:29;;;;;;;0.95;0.20;;;14.50;63.60;;;;;;4978502;28;20035;-88
2021/05/26 02:48:55;;;;;;;1.65;0.08;;;14.60;63.70;;;;;;4978532;28;20495;-87
2021/05/26 02:51:21;;;;;;;11.93;0.70;;;14.50;63.60;;;;;;4980382;28;20033;-87
2021/05/26 02:53:47;;;;;;;0.85;0.10;;;14.60;63.80;;;;;;4978967;28;20337;-87
2021/05/26 02:56:13;;;;;;;0.93;0.22;;;14.50;63.70;;;;;;4980071;28;20030;-88
2021/05/26 02:58:39;;;;;;;2.55;0.30;;;14.60;63.80;;;;;;4976564;28;20031;-87
2021/05/26 03:01:05;;;;;;;0.45;0.35;;;14.60;63.80;;;;;;4976483;28;20415;-89
2021/05/26 03:03:31;;;;;;;0.88;0.20;;;14.50;63.80;;;;;;4974633;28;20038;-87
2021/05/26 03:05:58;;;;;;;0.10;0.05;;;14.60;63.90;;;;;;4974396;28;20027;-87
2021/05/26 03:08:24;;;;;;;2.72;0.20;;;14.60;63.80;;;;;;4974689;28;20035;-88
2021/05/26 03:10:50;;;;;;;0.10;0.05;;;14.60;63.90;;;;;;4975606;28;20419;-84
2021/05/26 03:13:16;;;;;;;0.43;0.20;;;14.60;63.90;;;;;;4974413;28;20043;-88
2021/05/26 03:15:42;;;;;;;0.22;0.10;;;14.60;63.90;;;;;;4990678;28;20035;-88
2021/05/26 03:18:10;;;;;;;2.92;0.10;;;14.50;63.80;;;;;;4975070;28;20035;-89
2021/05/26 03:20:36;;;;;;;0.10;0.03;;;14.50;63.90;;;;;;4974386;28;20046;-89
2021/05/26 03:23:02;;;;;;;0.17;0.00;;;14.50;63.90;;;;;;4974263;28;20041;-88
2021/05/26 03:25:28;;;;;;;0.08;0.00;;;14.50;64.00;;;;;;4974141;28;20038;-87
2021/05/26 03:27:54;;;;;;;13.07;0.38;;;14.50;64.00;;;;;;4958769;28;20039;-87
2021/05/26 03:30:21;;;;;;;0.25;0.00;;;14.50;64.00;;;;;;4977450;28;20472;-87
2021/05/26 03:32:47;;;;;;;0.08;0.00;;;14.50;64.00;;;;;;4983326;28;20054;-89
2021/05/26 03:35:14;;;;;;;0.10;0.00;;;14.50;64.10;;;;;;4978373;28;20391;-89
2021/05/26 03:37:40;;;;;;;0.00;0.00;;;14.50;64.10;;;;;;4976092;28;20038;-87
2021/05/26 03:40:07;;;;;;;1.17;0.20;;;14.50;64.10;;;;;;4976215;28;20046;-87
2021/05/26 03:42:33;;;;;;;0.25;0.00;;;14.50;64.10;;;;;;4994826;28;20023;-87
2021/05/26 03:45:00;;;;;;;0.20;0.20;;;14.60;64.20;;;;;;4994381;28;20412;-87
2021/05/26 03:47:26;;;;;;;1.02;0.17;;;14.50;64.10;;;;;;4974344;28;20031;-88
2021/05/26 03:49:52;;;;;;;0.00;0.00;;;14.50;64.20;;;;;;4973795;28;20199;-89
2021/05/26 03:52:18;;;;;;;1.48;0.22;;;14.50;64.20;;;;;;4957720;28;20057;-87
2021/05/26 03:54:44;;;;;;;0.38;0.10;;;14.50;64.30;;;;;;4975353;28;20057;-88
2021/05/26 03:57:10;;;;;;;2.30;0.40;;;14.50;64.40;;;;;;4973516;28;20034;-88
2021/05/26 03:59:37;;;;;;;0.63;0.15;;;14.50;64.40;;;;;;4972636;28;20038;-89
2021/05/26 04:02:03;;;;;;;0.20;0.20;;;14.50;64.50;;;;;;4984003;28;20038;-87
2021/05/26 04:04:29;;;;;;;1.38;0.32;;;14.50;64.60;;;;;;4974141;28;20472;-87
2021/05/26 04:06:55;;;;;;;4.18;0.47;;;14.50;64.70;;;;;;4978388;28;20035;-87
2021/05/26 04:09:22;;;;;;;0.40;0.10;;;14.40;64.70;;;;;;5010281;28;20023;-88
2021/05/26 04:11:48;;;;;;;0.22;0.15;;;14.50;64.80;;;;;;5010108;28;20484;-88
2021/05/26 04:14:14;;;;;;;0.10;0.00;;;14.50;64.80;;;;;;5009989;28;20510;-88
2021/05/26 04:16:40;;;;;;;3.20;0.50;;;14.40;64.80;;;;;;4952241;28;20044;-87
2021/05/26 04:19:07;;;;;;;0.88;0.32;;;14.50;64.90;;;;;;4955208;29;20027;-87
2021/05/26 04:21:33;;;;;;;0.35;0.13;;;14.40;64.90;;;;;;4954529;29;20039;-87
2021/05/26 04:23:59;;;;;;;0.05;0.05;;;14.40;65.10;;;;;;4955023;28;20039;-86
2021/05/26 04:26:25;;;;;;;0.00;0.00;;;14.40;65.10;;;;;;4953774;28;20046;-88
2021/05/26 04:28:52;;;;;;;0.52;0.28;;;14.40;65.20;;;;;;4953689;28;20373;-83
2021/05/26 04:31:18;;;;;;;0.30;0.10;;;14.40;65.20;;;;;;4979302;28;20034;-88
2021/05/26 04:33:45;;;;;;;0.00;0.00;;;14.40;65.40;;;;;;4974441;28;20078;-88
2021/05/26 04:36:11;;;;;;;0.03;0.00;;;14.40;65.50;;;;;;4975031;28;20488;-87
2021/05/26 04:38:37;;;;;;;0.25;0.00;;;14.40;65.70;;;;;;4977141;28;20397;-87
2021/05/26 04:41:05;;;;;;;0.47;0.10;;;14.30;65.60;;;;;;4977136;28;20030;-88
2021/05/26 04:43:31;;;;;;;3.53;0.10;;;14.40;65.80;;;;;;4957919;28;20047;-87
2021/05/26 04:45:57;;;;;;;2.75;0.10;;;14.30;65.80;;;;;;4975355;28;20054;-87
2021/05/26 04:48:23;;;;;;;0.17;0.00;;;14.30;65.80;;;;;;4973224;28;20051;-88
2021/05/26 04:50:49;;;;;;;0.47;0.25;;;14.40;65.90;;;;;;4972584;28;20042;-86
2021/05/26 04:53:16;;;;;;;0.00;0.00;;;14.40;65.90;;;;;;4988706;28;20046;-90
2021/05/26 04:55:42;;;;;;;0.43;0.10;;;14.30;65.90;;;;;;4972569;28;20023;-87
2021/05/26 04:58:08;;;;;;;0.40;0.25;;;14.30;66.00;;;;;;4973779;28;20034;-88
2021/05/26 05:00:35;;;;;;;9.18;0.20;;;14.40;66.10;;;;;;4972232;28;20031;-89
2021/05/26 05:03:01;;;;;;;0.00;0.00;;;14.40;66.10;;;;;;4973470;28;20031;-89
2021/05/26 05:05:32;;;;;;;4.90;0.40;;;14.40;66.20;;;;;;4955374;28;20062;-88
2021/05/26 05:07:59;;;;;;;0.60;0.30;;;14.40;66.20;;;;;;4973558;28;20464;-86
2021/05/26 05:10:25;;;;;;;0.30;0.10;;;14.40;66.20;;;;;;4956461;28;20046;-90
2021/05/26 05:12:51;;;;;;;0.10;0.05;;;14.40;66.30;;;;;;4969956;28;20046;-90
2021/05/26 05:15:17;;;;;;;0.77;0.38;;;14.30;66.40;;;;;;4972505;28;20039;-88
2021/05/26 05:17:47;;;;;;;7.68;0.22;;;14.40;66.50;;;;;;4981320;28;20049;-89
2021/05/26 05:20:19;;;;;;;0.22;0.03;;;14.30;66.60;;;;;;4976355;28;20031;-89
2021/05/26 05:22:52;;;;;;;0.00;0.00;;;14.30;66.70;;;;;;4974917;28;20037;-88
2021/05/26 05:25:18;;;;;;;0.20;0.10;;;14.30;66.70;;;;;;4972687;28;20388;-89
2021/05/26 05:27:45;;;;;;;0.00;0.00;;;14.30;66.70;;;;;;4993105;28;20034;-88
2021/05/26 05:30:11;;;;;;;1.33;0.10;;;14.30;66.70;;;;;;4977532;28;20051;-88
2021/05/26 05:32:38;;;;;;;0.13;0.10;;;14.30;66.80;;;;;;4973022;28;20042;-87
2021/05/26 05:35:04;;;;;;;0.00;0.00;;;14.30;66.90;;;;;;4973134;28;20031;-89
2021/05/26 05:37:30;;;;;;;0.45;0.10;;;14.30;66.90;;;;;;4955353;28;20046;-88
2021/05/26 05:39:56;;;;;;;0.10;0.10;;;14.30;67.00;;;;;;4973460;28;20046;-89
2021/05/26 05:42:22;;;;;;;0.10;0.00;;;14.40;67.10;;;;;;4972278;28;20031;-88
2021/05/26 05:44:48;;;;;;;0.57;0.10;;;14.40;67.10;;;;;;4972474;28;20046;-89
2021/05/26 05:47:15;;;;;;;0.60;0.10;;;14.40;67.20;;;;;;4966626;28;20038;-89
2021/05/26 05:49:41;;;;;;;0.03;0.00;;;14.40;67.20;;;;;;4973865;28;20030;-89
2021/05/26 05:52:11;;;;;;;7.38;0.10;;;14.40;67.20;;;;;;4958019;28;20046;-88
2021/05/26 05:54:37;;;;;;;0.00;0.00;;;14.40;67.20;;;;;;5006269;28;20404;-88
2021/05/26 05:57:04;;;;;;;0.57;0.25;;;14.40;67.20;;;;;;4992188;28;20038;-88
2021/05/26 05:59:30;;;;;;;0.00;0.00;;;14.40;67.30;;;;;;4991702;28;20046;-88
2021/05/26 06:01:57;;;;;;;1.77;0.10;;;14.50;67.40;;;;;;5003714;28;20392;-88
2021/05/26 06:04:23;;;;;;;0.03;0.00;;;14.50;67.40;;;;;;4971836;28;20030;-89
2021/05/26 06:06:49;;;;;;;0.13;0.05;;;14.50;67.50;;;;;;4988309;28;20030;-88
2021/05/26 06:09:15;;;;;;;0.10;0.00;;;14.50;67.50;;;;;;4972766;28;20026;-86
2021/05/26 06:11:41;;;;;;;0.82;0.08;;;14.50;67.60;;;;;;4971626;28;20035;-87
2021/05/26 06:14:08;;;;;;;0.55;0.10;;;14.50;67.70;;;;;;4971518;28;20396;-88
2021/05/26 06:16:37;;;;;;;0.20;0.00;;;14.50;67.70;;;;;;4980559;28;20039;-87
2021/05/26 06:19:05;;;;;;;0.68;0.30;;;14.50;67.70;;;;;;4974353;28;20050;-87
2021/05/26 06:21:31;;;;;;;1.60;0.15;;;14.50;67.80;;;;;;4992564;28;20028;-87
2021/05/26 06:23:57;;;;;;;0.10;0.00;;;14.60;67.80;;;;;;4995771;28;20042;-85
2021/05/26 06:26:24;;;;;;;0.28;0.28;;;14.60;67.90;;;;;;4980360;28;20026;-87
2021/05/26 06:28:50;;;;;;;0.20;0.15;;;14.60;67.90;;;;;;4961503;28;20057;-87
2021/05/26 06:31:16;;;;;;;0.00;0.00;;;14.60;67.90;;;;;;4976816;28;20405;-87
2021/05/26 06:33:42;;;;;;;0.00;0.00;;;14.70;68.00;;;;;;4991758;28;20053;-88
2021/05/26 06:36:09;;;;;;;0.00;0.00;;;14.70;68.00;;;;;;4991169;28;20031;-87
2021/05/26 06:38:36;;;;;;;0.00;0.00;;;14.70;68.00;;;;;;4991397;28;20396;-87
2021/05/26 06:41:02;;;;;;;0.10;0.10;;;14.70;68.10;;;;;;4990778;28;20034;-88
2021/05/26 06:43:28;;;;;;;0.10;0.10;;;14.70;68.10;;;;;;4975036;28;20034;-86
2021/05/26 06:45:54;;;;;;;1.40;0.80;;;14.70;68.10;;;;;;4983050;28;20053;-87
2021/05/26 06:48:20;;;;;;;0.00;0.00;;;14.70;68.30;;;;;;4979375;28;20472;-85
2021/05/26 06:50:46;;;;;;;0.25;0.10;;;14.70;68.30;;;;;;4980265;28;20031;-87
2021/05/26 06:53:12;;;;;;;0.05;0.00;;;14.80;68.30;;;;;;4979069;28;20042;-88
2021/05/26 06:55:38;;;;;;;0.40;0.35;;;14.80;68.30;;;;;;4977325;28;20027;-86
2021/05/26 06:58:04;;;;;;;0.57;0.10;;;14.80;68.30;;;;;;4977237;28;20452;-89
2021/05/26 07:00:31;;;;;;;5.82;0.20;;;14.80;68.40;;;;;;5011619;28;20043;-87
2021/05/26 07:02:57;;;;;;;0.22;0.15;;;14.80;68.30;;;;;;4974646;28;20046;-88
2021/05/26 07:05:23;;;;;;;0.10;0.10;;;14.90;68.30;;;;;;4974551;28;20035;-87
2021/05/26 07:07:49;;;;;;;0.00;0.00;;;15.00;68.40;;;;;;4975855;28;20439;-86
2021/05/26 07:10:16;;;;;;;0.00;0.00;;;15.00;68.40;;;;;;4974132;28;20039;-87
2021/05/26 07:12:43;;;;;;;0.00;0.00;;;15.10;68.40;;;;;;4991077;28;20069;-88
2021/05/26 07:15:10;;;;;;;0.25;0.05;;;15.10;68.40;;;;;;4973795;28;20034;-88
2021/05/26 07:17:36;;;;;;;0.00;0.00;;;15.10;68.40;;;;;;4990453;28;20031;-88
2021/05/26 07:20:03;;;;;;;0.20;0.00;;;15.10;68.40;;;;;;4975447;28;20030;-86
2021/05/26 07:22:30;;;;;;;0.17;0.10;;;15.10;68.40;;;;;;4976058;28;20037;-87
2021/05/26 07:24:56;;;;;;;0.03;0.00;;;15.20;68.50;;;;;;4974099;28;20054;-85
2021/05/26 07:27:22;;;;;;;3.20;0.20;;;15.20;68.50;;;;;;4990448;28;20412;-87
2021/05/26 07:29:48;;;;;;;0.00;0.00;;;15.30;68.60;;;;;;4990490;28;20038;-88
2021/05/26 07:32:14;;;;;;;0.05;0.00;;;15.20;68.60;;;;;;4989770;28;20488;-87
2021/05/26 07:34:40;;;;;;;0.30;0.00;;;15.30;68.70;;;;;;4975058;28;20035;-86
2021/05/26 07:37:06;;;;;;;0.00;0.00;;;15.20;68.70;;;;;;4958328;28;20050;-88
2021/05/26 07:39:36;;;;;;;0.08;0.00;;;15.20;68.80;;;;;;4990239;28;20037;-87
2021/05/26 07:42:06;;;;;;;0.10;0.00;;;15.20;68.90;;;;;;4974966;28;20465;-86
2021/05/26 07:44:32;;;;;;;2.65;0.22;;;15.20;69.00;;;;;;4973797;28;20035;-86
2021/05/26 07:46:59;;;;;;;0.05;0.00;;;15.20;69.00;;;;;;4984577;28;20045;-86
2021/05/26 07:49:25;;;;;;;0.00;0.00;;;15.20;69.10;;;;;;4973993;28;20031;-87
2021/05/26 07:51:52;;;;;;;11.40;0.30;;;15.20;69.20;;;;;;5011006;28;20377;-86
2021/05/26 07:54:18;;;;;;;0.25;0.20;;;15.20;69.20;;;;;;4993738;28;20059;-86
2021/05/26 07:56:45;;;;;;;0.00;0.00;;;15.20;69.20;;;;;;4979137;28;20038;-86
2021/05/26 07:59:11;;;;;;;0.30;0.10;;;15.30;69.30;;;;;;4960803;28;20035;-85
2021/05/26 08:01:37;;;;;;;0.10;0.00;;;15.20;69.20;;;;;;4952899;28;20042;-86
2021/05/26 08:04:03;;;;;;;0.32;0.00;;;15.20;69.30;;;;;;4955361;28;20054;-86
2021/05/26 08:06:29;;;;;;;0.00;0.00;;;15.30;69.40;;;;;;4955858;28;20039;-86
2021/05/26 08:08:55;;;;;;;0.17;0.10;;;15.30;69.40;;;;;;4953795;28;20489;-86
2021/05/26 08:11:21;;;;;;;0.00;0.00;;;15.30;69.40;;;;;;4953905;28;20031;-86
2021/05/26 08:13:47;;;;;;;0.05;0.00;;;15.30;69.40;;;;;;4954081;29;20050;-87
2021/05/26 08:16:14;;;;;;;0.05;0.00;;;15.40;69.50;;;;;;4970111;28;20042;-87
2021/05/26 08:18:40;;;;;;;0.00;0.00;;;15.40;69.50;;;;;;5010573;28;20027;-87
2021/05/26 08:21:07;;;;;;;0.00;0.00;;;15.40;69.50;;;;;;4978643;28;20038;-86
2021/05/26 08:23:33;;;;;;;0.00;0.00;;;15.30;69.60;;;;;;4976945;28;20034;-86
2021/05/26 08:25:59;;;;;;;0.00;0.00;;;15.40;69.70;;;;;;4977235;28;20467;-87
2021/05/26 08:28:26;;;;;;;0.35;0.10;;;15.40;69.70;;;;;;4973222;28;20031;-86
2021/05/26 08:30:53;;;;;;;0.00;0.00;;;15.40;69.70;;;;;;5016641;28;20034;-84
2021/05/26 08:33:19;;;;;;;0.20;0.05;;;15.40;69.70;;;;;;4960084;28;20485;-87
2021/05/26 08:35:45;;;;;;;0.00;0.00;;;15.40;69.70;;;;;;4977143;28;20023;-87
2021/05/26 08:38:11;;;;;;;0.10;0.00;;;15.50;69.70;;;;;;4976983;28;20034;-87
2021/05/26 08:40:37;;;;;;;1.27;0.40;;;15.50;69.60;;;;;;4973363;28;20046;-87
2021/05/26 08:43:04;;;;;;;0.00;0.00;;;15.60;69.70;;;;;;4975507;28;20031;-87
2021/05/26 08:45:30;;;;;;;3.90;0.10;;;15.60;69.70;;;;;;5008645;28;20411;-86
2021/05/26 08:47:59;;;;;;;0.00;0.00;;;15.60;69.70;;;;;;4972685;28;20023;-87
2021/05/26 08:50:26;;;;;;;0.63;0.22;;;15.70;69.80;;;;;;4988594;28;20054;-87
2021/05/26 08:52:52;;;;;;;1.75;0.15;;;15.60;69.80;;;;;;4973491;28;20022;-85
2021/05/26 08:55:18;;;;;;;0.30;0.10;;;15.60;69.80;;;;;;4973809;28;20052;-87
2021/05/26 08:57:44;;;;;;;0.00;0.00;;;15.60;69.80;;;;;;4989319;28;20388;-86
2021/05/26 09:00:11;;;;;;;0.17;0.03;;;15.60;69.90;;;;;;4971861;28;20403;-87
2021/05/26 09:02:37;;;;;;;0.00;0.00;;;15.60;69.90;;;;;;4973639;28;20499;-87
2021/05/26 09:05:04;;;;;;;0.65;0.10;;;15.70;70.00;;;;;;4972340;28;20038;-87
2021/05/26 09:07:33;;;;;;;0.03;0.00;;;15.70;70.00;;;;;;4972101;28;20476;-86
2021/05/26 09:10:01;;;;;;;0.00;0.00;;;15.70;70.00;;;;;;4956989;28;20045;-85
2021/05/26 09:12:31;;;;;;;0.00;0.00;;;15.70;70.00;;;;;;4988732;28;20031;-87
2021/05/26 09:15:17;;;;;;;1.23;0.20;;;15.80;70.00;;;;;;4988179;28;20491;-86
2021/05/26 09:17:44;;;;;;;0.00;0.00;;;15.80;70.00;;;;;;5003757;28;20046;-87
2021/05/26 09:20:22;;;;;;;0.08;0.03;;;15.80;69.90;;;;;;4973250;28;20384;-87
2021/05/26 09:23:18;;;;;;;0.03;0.00;;;15.80;70.00;;;;;;4973316;28;20271;-87
2021/05/26 09:25:44;;;;;;;0.00;0.00;;;15.80;70.00;;;;;;4991027;28;20484;-88
2021/05/26 09:28:42;;;;;;;2.63;0.08;;;15.80;70.00;;;;;;4973290;28;20511;-86
2021/05/26 09:31:09;;;;;;;0.28;0.00;;;15.80;70.10;;;;;;4966410;28;20039;-85
2021/05/26 09:33:39;;;;;;;0.00;0.00;;;15.80;70.10;;;;;;4972551;28;20420;-87
2021/05/26 09:36:21;;;;;;;0.17;0.03;;;15.80;70.20;;;;;;4971458;28;20049;-88
2021/05/26 09:38:52;;;;;;;0.00;0.00;;;15.70;70.20;;;;;;4955977;28;20050;-86
2021/05/26 09:41:20;;;;;;;0.00;0.00;;;15.80;70.30;;;;;;4973093;28;20042;-88
2021/05/26 09:43:47;;;;;;;0.63;0.00;;;15.80;70.30;;;;;;4971974;28;20499;-86
2021/05/26 09:46:24;;;;;;;0.65;0.00;;;15.80;70.20;;;;;;4962509;28;20039;-87
2021/05/26 09:49:10;;;;;;;0.00;0.00;;;15.90;70.30;;;;;;5008721;28;20043;-87
2021/05/26 09:51:47;;;;;;;0.10;0.00;;;15.80;70.20;;;;;;4992655;28;20050;-88
2021/05/26 09:54:26;;;;;;;0.17;0.10;;;15.90;70.30;;;;;;4992135;28;20459;-87
2021/05/26 09:57:13;;;;;;;0.00;0.00;;;15.90;70.30;;;;;;4992092;28;20034;-85
2021/05/26 09:59:41;;;;;;;0.00;0.00;;;15.90;70.20;;;;;;4978725;28;20038;-87
2021/05/26 10:02:08;;;;;;;0.10;0.00;;;16.00;70.10;;;;;;4973997;28;20396;-87
2021/05/26 10:04:34;;;;;;;0.50;0.10;;;16.00;70.00;;;;;;4959575;28;20046;-86
2021/05/26 10:07:04;;;;;;;0.00;0.00;;;16.10;70.00;;;;;;4975812;28;20392;-87
2021/05/26 10:09:32;;;;;;;0.10;0.00;;;16.10;70.00;;;;;;4991325;28;20392;-85
2021/05/26 10:11:58;;;;;;;4.13;0.13;;;16.10;70.00;;;;;;4975396;28;20046;-87
2021/05/26 10:14:24;;;;;;;0.20;0.00;;;16.10;70.10;;;;;;4991600;28;20039;-87
2021/05/26 10:16:53;;;;;;;0.30;0.05;;;16.10;70.10;;;;;;4991163;28;20031;-87
2021/05/26 10:19:19;;;;;;;0.30;0.00;;;16.10;70.20;;;;;;4975134;28;20030;-87
2021/05/26 10:21:48;;;;;;;0.00;0.00;;;16.20;70.20;;;;;;4992062;28;20030;-87
2021/05/26 10:24:21;;;;;;;2.60;0.20;;;16.20;70.20;;;;;;4991362;28;20597;-88
2021/05/26 10:26:53;;;;;;;0.08;0.00;;;16.20;70.20;;;;;;4976415;28;20034;-87
2021/05/26 10:29:30;;;;;;;0.08;0.00;;;16.20;70.10;;;;;;4976379;28;20034;-87
2021/05/26 10:31:57;;;;;;;0.15;0.10;;;16.20;70.20;;;;;;4987077;28;20041;-87
2021/05/26 10:34:42;;;;;;;0.00;0.00;;;16.20;70.90;;;;;;4974765;28;20068;-88
2021/05/26 10:37:12;;;;;;;0.50;0.00;;;16.30;70.40;;;;;;5021852;28;20403;-88
2021/05/26 10:39:39;;;;;;;0.35;0.05;;;16.30;70.00;;;;;;5010770;28;20031;-86
2021/05/26 10:42:05;;;;;;;0.47;0.10;;;16.30;70.00;;;;;;5011693;28;20038;-87
2021/05/26 10:44:57;;;;;;;0.00;0.00;;;16.30;70.00;;;;;;5011669;28;20031;-87
2021/05/26 10:47:38;;;;;;;0.73;0.00;;;16.30;70.00;;;;;;4975277;28;20027;-88
2021/05/26 10:50:15;;;;;;;0.00;0.00;;;16.30;70.00;;;;;;4976055;28;20027;-87
2021/05/26 10:52:57;;;;;;;0.30;0.00;;;16.40;70.00;;;;;;4974877;28;20038;-86
2021/05/26 10:55:39;;;;;;;0.00;0.00;;;16.40;70.00;;;;;;4990868;28;20051;-87
2021/05/26 10:58:36;;;;;;;0.20;0.05;;;16.40;69.90;;;;;;4988247;28;20531;-86
2021/05/26 11:01:04;;;;;;;0.10;0.00;;;16.40;69.90;;;;;;4986471;28;20500;-88
2021/05/26 11:03:31;;;;;;;0.10;0.00;;;16.50;69.80;;;;;;4975311;28;20034;-89
2021/05/26 11:06:19;;;;;;;0.45;0.00;;;16.50;69.70;;;;;;4975684;28;20488;-87
2021/05/26 11:08:46;;;;;;;0.00;0.00;;;16.50;69.70;;;;;;4975110;28;20030;-86
2021/05/26 11:11:24;;;;;;;0.00;0.00;;;16.50;69.70;;;;;;4974492;28;20027;-86
2021/05/26 11:14:05;;;;;;;0.00;0.00;;;16.50;69.80;;;;;;4975540;28;20050;-87
2021/05/26 11:16:47;;;;;;;0.17;0.00;;;16.50;69.80;;;;;;4960311;28;20483;-88
2021/05/26 11:19:21;;;;;;;0.93;0.00;;;16.50;69.90;;;;;;4958390;28;20392;-87
2021/05/26 11:21:54;;;;;;;0.15;0.10;;;16.50;69.80;;;;;;4974899;28;20041;-87
2021/05/26 11:24:20;;;;;;;0.20;0.00;;;16.60;69.70;;;;;;4990364;28;20031;-88
2021/05/26 11:26:47;;;;;;;0.20;0.00;;;16.70;69.60;;;;;;4990370;28;20043;-86
2021/05/26 11:29:13;;;;;;;0.10;0.00;;;16.80;69.40;;;;;;4975303;28;20484;-87
2021/05/26 11:31:39;;;;;;;0.47;0.00;;;16.90;69.20;;;;;;4982297;28;20400;-86
2021/05/26 11:34:08;;;;;;;0.63;0.20;;;17.00;69.00;;;;;;4976582;28;20027;-88
2021/05/26 11:36:44;;;;;;;0.08;0.00;;;17.10;68.90;;;;;;5010681;28;20034;-88
2021/05/26 11:39:31;;;;;;;0.22;0.00;;;17.10;68.90;;;;;;4994393;28;20034;-87
2021/05/26 11:42:17;;;;;;;0.13;0.00;;;17.20;68.90;;;;;;5007791;28;20238;-88
2021/05/26 11:44:47;;;;;;;0.10;0.00;;;17.30;68.80;;;;;;4994005;28;20046;-89
2021/05/26 11:47:13;;;;;;;0.63;0.00;;;17.30;68.60;;;;;;4974275;28;20050;-88
2021/05/26 11:49:40;;;;;;;0.10;0.00;;;17.40;68.60;;;;;;4973852;28;20511;-88
2021/05/26 11:52:09;;;;;;;0.00;0.00;;;17.30;68.50;;;;;;4975040;28;20035;-88
2021/05/26 11:55:01;;;;;;;0.60;0.00;;;17.30;68.70;;;;;;4974255;28;20057;-87
2021/05/26 11:57:37;;;;;;;0.50;0.10;;;17.20;68.80;;;;;;4974091;28;20068;-89
2021/05/26 12:00:05;;;;;;;4.07;0.57;;;17.20;68.80;;;;;;4988838;28;20485;-88
2021/05/26 12:02:31;;;;;;;0.63;0.00;;;17.30;68.80;;;;;;4989576;28;20030;-88
2021/05/26 12:04:58;;;;;;;0.38;0.30;;;17.30;68.60;;;;;;4974834;28;20058;-88
2021/05/26 12:07:24;;;;;;;0.35;0.00;;;17.40;68.50;;;;;;4974733;28;20481;-89
2021/05/26 12:09:59;;;;;;;0.20;0.00;;;17.40;68.40;;;;;;4954906;28;20042;-86
2021/05/26 12:12:25;;;;;;;0.05;0.00;;;17.40;68.40;;;;;;5005772;28;20030;-89
2021/05/26 12:14:51;;;;;;;2.95;0.65;;;17.30;68.40;;;;;;4988852;28;20041;-89
2021/05/26 12:17:18;;;;;;;0.10;0.00;;;17.30;68.50;;;;;;4956828;28;20041;-88
2021/05/26 12:19:45;;;;;;;0.00;0.00;;;17.30;68.60;;;;;;4972361;28;20026;-89
2021/05/26 12:22:17;;;;;;;0.20;0.00;;;17.20;68.60;;;;;;4973258;28;20502;-88
2021/05/26 12:25:03;;;;;;;0.00;0.00;;;17.20;68.50;;;;;;4974890;28;20043;-88
2021/05/26 12:27:42;;;;;;;0.40;0.22;;;17.20;68.60;;;;;;4972821;28;20038;-88
2021/05/26 12:30:25;;;;;;;0.15;0.00;;;17.20;68.50;;;;;;4972385;28;20038;-88
2021/05/26 12:32:56;;;;;;;0.00;0.00;;;17.30;68.50;;;;;;4974223;28;20035;-88
2021/05/26 12:35:26;;;;;;;0.35;0.10;;;17.30;68.30;;;;;;4972712;28;20046;-89
2021/05/26 12:37:54;;;;;;;0.07;0.00;;;17.40;68.10;;;;;;4974517;28;20396;-88
2021/05/26 12:40:26;;;;;;;0.30;0.08;;;17.40;68.10;;;;;;4972871;28;20387;-88
2021/05/26 12:42:53;;;;;;;3.83;0.05;;;17.50;68.10;;;;;;4974581;28;20042;-88
2021/05/26 12:45:32;;;;;;;0.00;0.00;;;17.50;68.00;;;;;;4974061;28;20058;-87
2021/05/26 12:48:11;;;;;;;1.08;0.20;;;17.60;68.00;;;;;;4979936;28;20396;-88
2021/05/26 12:50:42;;;;;;;0.10;0.00;;;17.60;67.80;;;;;;4976962;28;20034;-88
2021/05/26 12:53:10;;;;;;;0.10;0.00;;;17.60;67.70;;;;;;4976042;28;20034;-88
2021/05/26 12:55:36;;;;;;;0.35;0.00;;;17.60;67.70;;;;;;4955772;28;20046;-89